createdAt,value
2019-03-29T00:01:39.987Z,48.80
2019-03-29T00:04:07.725Z,55.33
2019-03-29T00:06:35.474Z,48.03
2019-03-29T00:09:05.225Z,48.20
2019-03-29T00:11:33.000Z,50.27
2019-03-29T00:14:00.724Z,52.70
2019-03-29T00:16:28.480Z,55.13
2019-03-29T00:18:56.216Z,55.50
2019-03-29T00:21:23.996Z,53.23
2019-03-29T00:24:05.803Z,50.50
2019-03-29T00:26:21.508Z,51.27
2019-03-29T00:28:49.224Z,41.63
2019-03-29T00:31:16.972Z,40.23
2019-03-29T00:33:44.729Z,41.17
2019-03-29T00:36:12.484Z,41.83
2019-03-29T00:38:40.248Z,38.53
2019-03-29T00:41:08.005Z,46.67
2019-03-29T00:43:35.734Z,35.30
2019-03-29T00:46:03.479Z,40.17
2019-03-29T00:48:31.324Z,39.47
2019-03-29T00:50:59.314Z,39.40
2019-03-29T00:53:27.208Z,30.60
2019-03-29T00:55:54.956Z,47.00
2019-03-29T00:58:23.003Z,101.63
2019-03-29T01:00:51.016Z,45.40
2019-03-29T01:03:18.865Z,255.47
2019-03-29T01:05:47.017Z,112.00
2019-03-29T01:08:15.340Z,128.73
2019-03-29T01:10:43.124Z,42.80
2019-03-29T01:13:10.888Z,277.83
2019-03-29T01:15:38.726Z,220.83
2019-03-29T01:18:06.481Z,219.43
2019-03-29T01:20:34.209Z,194.53
2019-03-29T01:23:01.977Z,48.73
2019-03-29T01:25:29.732Z,212.73
2019-03-29T01:27:58.024Z,66.20
2019-03-29T01:30:25.889Z,141.03
2019-03-29T01:32:53.640Z,37.43
2019-03-29T01:35:21.388Z,36.40
2019-03-29T01:37:49.168Z,168.50
2019-03-29T01:40:17.025Z,178.73
2019-03-29T01:42:45.077Z,179.60
2019-03-29T01:45:13.348Z,161.10
2019-03-29T01:47:41.107Z,46.37
2019-03-29T01:50:09.057Z,128.87
2019-03-29T01:52:36.800Z,40.40
2019-03-29T01:55:05.948Z,41.47
2019-03-29T01:57:33.688Z,60.13
2019-03-29T02:00:01.434Z,44.70
2019-03-29T02:02:29.204Z,62.80
2019-03-29T02:04:57.038Z,209.20
2019-03-29T02:07:24.806Z,288.37
2019-03-29T02:09:52.636Z,375.67
2019-03-29T02:12:20.361Z,309.63
2019-03-29T02:14:48.124Z,61.20
2019-03-29T02:17:15.882Z,94.40
2019-03-29T02:19:43.612Z,157.77
2019-03-29T02:22:11.354Z,203.13
2019-03-29T02:24:39.086Z,221.13
2019-03-29T02:27:06.908Z,197.60
2019-03-29T02:29:34.660Z,207.67
2019-03-29T02:32:02.409Z,332.53
2019-03-29T02:34:30.146Z,148.50
2019-03-29T02:36:57.893Z,374.17
2019-03-29T02:39:26.749Z,445.67
2019-03-29T02:41:54.898Z,329.47
2019-03-29T02:44:22.696Z,154.60
2019-03-29T02:46:50.453Z,323.53
2019-03-29T02:49:18.189Z,286.53
2019-03-29T02:51:45.953Z,259.30
2019-03-29T02:54:13.701Z,148.40
2019-03-29T02:56:41.465Z,316.90
2019-03-29T02:59:09.257Z,246.73
2019-03-29T03:01:37.008Z,201.07
2019-03-29T03:04:04.745Z,376.97
2019-03-29T03:06:32.494Z,301.30
2019-03-29T03:09:13.387Z,83.93
2019-03-29T03:11:29.892Z,148.93
2019-03-29T03:13:57.665Z,156.97
2019-03-29T03:16:25.417Z,194.97
2019-03-29T03:18:53.152Z,131.77
2019-03-29T03:21:20.920Z,62.97
2019-03-29T03:23:48.650Z,161.47
2019-03-29T03:26:16.408Z,75.67
2019-03-29T03:28:44.160Z,140.00
2019-03-29T03:31:11.905Z,186.67
2019-03-29T03:33:39.853Z,98.57
2019-03-29T03:36:07.600Z,108.77
2019-03-29T03:38:35.344Z,119.83
2019-03-29T03:41:03.154Z,104.13
2019-03-29T03:43:30.917Z,206.70
2019-03-29T03:45:58.661Z,217.43
2019-03-29T03:48:26.397Z,122.57
2019-03-29T03:50:54.428Z,71.60
2019-03-29T03:53:22.174Z,137.73
2019-03-29T03:55:51.922Z,149.63
2019-03-29T03:58:21.066Z,103.47
2019-03-29T04:00:52.426Z,69.90
2019-03-29T04:03:21.260Z,195.53
2019-03-29T04:05:49.187Z,71.90
2019-03-29T04:08:17.417Z,63.10
2019-03-29T04:10:45.151Z,81.70
2019-03-29T04:13:13.222Z,120.33
2019-03-29T04:15:41.071Z,141.90
2019-03-29T04:18:09.312Z,251.70
2019-03-29T04:20:37.065Z,174.13
2019-03-29T04:23:04.809Z,136.13
2019-03-29T04:25:32.542Z,124.47
2019-03-29T04:28:00.293Z,159.27
2019-03-29T04:30:28.059Z,181.73
2019-03-29T04:32:56.022Z,102.67
2019-03-29T04:35:23.790Z,175.00
2019-03-29T04:37:51.567Z,136.97
2019-03-29T04:40:19.313Z,146.37
2019-03-29T04:42:47.108Z,100.40
2019-03-29T04:45:14.865Z,72.53
2019-03-29T04:47:42.834Z,85.67
2019-03-29T04:50:11.091Z,103.03
2019-03-29T04:52:38.889Z,106.77
2019-03-29T04:55:06.778Z,130.97
2019-03-29T04:57:34.520Z,131.83
2019-03-29T05:00:02.613Z,112.57
2019-03-29T05:02:30.371Z,131.27
2019-03-29T05:04:58.240Z,101.40
2019-03-29T05:07:25.998Z,163.77
2019-03-29T05:09:53.740Z,98.30
2019-03-29T05:12:21.495Z,126.90
2019-03-29T05:14:49.235Z,86.77
2019-03-29T05:17:17.064Z,106.87
2019-03-29T05:19:44.818Z,77.93
2019-03-29T05:22:12.591Z,101.67
2019-03-29T05:24:40.432Z,113.53
2019-03-29T05:27:08.201Z,82.67
2019-03-29T05:29:35.952Z,102.07
2019-03-29T05:32:03.900Z,74.07
2019-03-29T05:34:31.652Z,103.00
2019-03-29T05:36:59.564Z,97.97
2019-03-29T05:39:27.397Z,69.33
2019-03-29T05:41:55.140Z,112.13
2019-03-29T05:44:22.894Z,59.37
2019-03-29T05:46:50.648Z,59.83
2019-03-29T05:49:18.437Z,65.57
2019-03-29T05:51:46.495Z,69.70
2019-03-29T05:54:14.235Z,66.03
2019-03-29T05:56:42.023Z,56.17
2019-03-29T05:59:09.888Z,86.57
2019-03-29T06:01:37.652Z,79.53
2019-03-29T06:04:05.479Z,81.47
2019-03-29T06:06:33.369Z,65.40
2019-03-29T06:09:01.109Z,66.23
2019-03-29T06:11:28.861Z,72.33
2019-03-29T06:13:56.739Z,76.53
2019-03-29T06:16:38.122Z,65.80
2019-03-29T06:18:54.180Z,50.73
2019-03-29T06:21:21.972Z,48.70
2019-03-29T06:23:49.702Z,51.97
2019-03-29T06:26:17.587Z,52.20
2019-03-29T06:28:45.349Z,46.80
2019-03-29T06:31:13.128Z,50.00
2019-03-29T06:33:44.165Z,50.47
2019-03-29T06:36:12.937Z,53.73
2019-03-29T06:38:42.672Z,50.10
2019-03-29T06:41:10.409Z,44.80
2019-03-29T06:43:38.248Z,48.43
2019-03-29T06:46:06.024Z,42.93
2019-03-29T06:48:33.808Z,45.97
2019-03-29T06:51:01.582Z,52.03
2019-03-29T06:53:29.318Z,47.80
2019-03-29T06:55:59.345Z,39.53
2019-03-29T06:58:26.724Z,35.67
2019-03-29T07:00:54.573Z,41.90
2019-03-29T07:03:22.325Z,38.73
2019-03-29T07:05:50.138Z,36.57
2019-03-29T07:08:17.877Z,36.80
2019-03-29T07:10:45.612Z,38.20
2019-03-29T07:13:13.405Z,36.30
2019-03-29T07:15:41.144Z,36.43
2019-03-29T07:18:08.889Z,38.23
2019-03-29T07:20:36.653Z,37.13
2019-03-29T07:23:04.413Z,43.07
2019-03-29T07:25:32.160Z,42.20
2019-03-29T07:27:59.907Z,34.03
2019-03-29T07:30:27.652Z,34.57
2019-03-29T07:32:55.392Z,34.20
2019-03-29T07:35:23.161Z,30.60
2019-03-29T07:37:50.920Z,29.40
2019-03-29T07:40:18.672Z,32.50
2019-03-29T07:42:46.427Z,33.90
2019-03-29T07:45:14.390Z,25.20
2019-03-29T07:47:42.126Z,32.17
2019-03-29T07:50:09.921Z,29.03
2019-03-29T07:52:37.758Z,28.70
2019-03-29T07:55:05.732Z,35.70
2019-03-29T07:57:33.484Z,30.30
2019-03-29T08:00:01.256Z,30.77
2019-03-29T08:02:29.243Z,27.77
2019-03-29T08:04:57.086Z,27.37
2019-03-29T08:07:27.610Z,30.23
2019-03-29T08:09:54.541Z,30.60
2019-03-29T08:12:22.495Z,33.33
2019-03-29T08:14:50.452Z,28.53
2019-03-29T08:17:18.204Z,30.47
2019-03-29T08:19:45.947Z,25.83
2019-03-29T08:22:13.676Z,24.40
2019-03-29T08:24:41.570Z,26.20
2019-03-29T08:27:09.324Z,21.50
2019-03-29T08:29:37.064Z,25.23
2019-03-29T08:32:05.051Z,23.23
2019-03-29T08:34:35.792Z,26.87
2019-03-29T08:37:02.582Z,23.00
2019-03-29T08:39:30.453Z,42.67
2019-03-29T08:42:00.376Z,26.10
2019-03-29T08:44:27.960Z,17.83
2019-03-29T08:46:55.712Z,15.67
2019-03-29T08:49:23.454Z,25.03
2019-03-29T08:51:51.201Z,20.70
2019-03-29T08:54:19.015Z,18.20
2019-03-29T08:56:46.903Z,16.90
2019-03-29T08:59:17.403Z,15.70
2019-03-29T09:01:44.421Z,16.30
2019-03-29T09:04:12.168Z,13.80
2019-03-29T09:06:52.684Z,13.13
2019-03-29T09:09:11.963Z,11.50
2019-03-29T09:11:39.499Z,13.70
2019-03-29T09:14:07.232Z,12.97
2019-03-29T09:16:35.067Z,11.43
2019-03-29T09:19:02.977Z,9.70
2019-03-29T09:21:30.701Z,26.73
2019-03-29T09:23:58.477Z,14.83
2019-03-29T09:26:26.236Z,16.27
2019-03-29T09:28:54.004Z,13.60
2019-03-29T09:31:21.901Z,9.10
2019-03-29T09:33:49.677Z,10.70
2019-03-29T09:36:17.412Z,12.80
2019-03-29T09:38:45.169Z,9.00
2019-03-29T09:41:12.913Z,7.43
2019-03-29T09:43:40.689Z,8.30
2019-03-29T09:46:08.512Z,9.37
2019-03-29T09:48:36.275Z,18.13
2019-03-29T09:51:04.026Z,10.93
2019-03-29T09:53:31.807Z,9.10
2019-03-29T09:55:59.702Z,9.00
2019-03-29T09:58:27.565Z,14.93
2019-03-29T10:00:55.515Z,11.00
2019-03-29T10:03:23.268Z,9.73
2019-03-29T10:05:51.011Z,12.13
2019-03-29T10:08:18.752Z,12.63
2019-03-29T10:10:46.497Z,12.10
2019-03-29T10:13:14.234Z,12.80
2019-03-29T10:15:41.979Z,15.33
2019-03-29T10:18:09.728Z,12.40
2019-03-29T10:20:37.574Z,12.13
2019-03-29T10:23:05.361Z,12.50
2019-03-29T10:25:33.115Z,11.70
2019-03-29T10:28:00.871Z,19.83
2019-03-29T10:30:37.251Z,15.40
2019-03-29T10:33:05.141Z,11.67
2019-03-29T10:35:32.897Z,10.83
2019-03-29T10:38:00.749Z,11.37
2019-03-29T10:40:28.477Z,13.80
2019-03-29T10:42:58.119Z,10.87
2019-03-29T10:45:25.906Z,16.13
2019-03-29T10:47:53.648Z,12.90
2019-03-29T10:50:21.428Z,11.67
2019-03-29T10:52:49.185Z,10.70
2019-03-29T10:55:17.017Z,12.00
2019-03-29T10:57:44.796Z,11.50
2019-03-29T11:00:17.410Z,11.80
2019-03-29T11:02:45.231Z,10.53
2019-03-29T11:05:13.195Z,15.63
2019-03-29T11:07:40.942Z,12.13
2019-03-29T11:10:12.904Z,12.00
2019-03-29T11:12:40.873Z,11.70
2019-03-29T11:15:08.734Z,9.70
2019-03-29T11:17:36.684Z,10.10
2019-03-29T11:20:05.152Z,12.23
2019-03-29T11:22:32.923Z,11.63
2019-03-29T11:25:00.675Z,12.10
2019-03-29T11:27:28.545Z,14.03
2019-03-29T11:29:56.282Z,9.00
2019-03-29T11:32:24.048Z,15.00
2019-03-29T11:34:51.798Z,14.60
2019-03-29T11:37:19.550Z,9.90
2019-03-29T11:39:47.284Z,10.07
2019-03-29T11:42:15.024Z,11.77
2019-03-29T11:44:42.768Z,12.00
2019-03-29T11:47:10.625Z,11.07
2019-03-29T11:49:38.397Z,11.23
2019-03-29T11:52:06.165Z,12.30
2019-03-29T11:54:34.041Z,9.73
2019-03-29T11:57:01.777Z,11.10
2019-03-29T11:59:29.541Z,18.37
2019-03-29T12:01:57.297Z,13.60
2019-03-29T12:04:25.055Z,12.27
2019-03-29T12:06:52.820Z,10.67
2019-03-29T12:09:20.586Z,13.03
2019-03-29T12:11:48.354Z,11.67
2019-03-29T12:14:16.213Z,9.93
2019-03-29T12:16:43.967Z,11.30
2019-03-29T12:19:11.733Z,9.97
2019-03-29T12:21:39.621Z,8.40
2019-03-29T12:24:07.404Z,8.60
2019-03-29T12:26:35.158Z,9.73
2019-03-29T12:29:04.961Z,14.40
2019-03-29T12:31:32.792Z,11.20
2019-03-29T12:34:00.649Z,11.27
2019-03-29T12:36:28.416Z,15.43
2019-03-29T12:38:56.185Z,11.30
2019-03-29T12:41:24.037Z,9.97
2019-03-29T12:43:55.707Z,12.80
2019-03-29T12:46:21.681Z,10.10
2019-03-29T12:48:50.402Z,13.03
2019-03-29T12:51:18.530Z,9.90
2019-03-29T12:53:46.308Z,11.57
2019-03-29T12:56:14.079Z,10.07
2019-03-29T12:58:41.961Z,12.93
2019-03-29T13:01:09.706Z,12.47
2019-03-29T13:03:37.601Z,9.87
2019-03-29T13:06:05.501Z,10.43
2019-03-29T13:08:33.304Z,9.40
2019-03-29T13:11:01.121Z,11.07
2019-03-29T13:13:29.003Z,9.50
2019-03-29T13:15:56.755Z,11.57
2019-03-29T13:18:24.542Z,11.57
2019-03-29T13:20:52.301Z,12.30
2019-03-29T13:23:20.059Z,11.23
2019-03-29T13:25:47.909Z,10.00
2019-03-29T13:28:15.756Z,12.50
2019-03-29T13:30:43.512Z,10.90
2019-03-29T13:33:11.249Z,11.17
2019-03-29T13:35:39.100Z,11.20
2019-03-29T13:38:06.944Z,11.40
2019-03-29T13:40:34.724Z,10.00
2019-03-29T13:43:02.464Z,9.50
2019-03-29T13:45:30.301Z,13.00
2019-03-29T13:47:58.373Z,10.23
2019-03-29T13:50:26.132Z,12.00
2019-03-29T13:52:53.868Z,11.60
2019-03-29T13:55:21.617Z,13.00
2019-03-29T13:57:49.390Z,9.97
2019-03-29T14:00:17.589Z,10.17
2019-03-29T14:02:45.385Z,12.20
2019-03-29T14:05:13.347Z,10.80
2019-03-29T14:07:41.096Z,12.87
2019-03-29T14:10:09.732Z,13.33
2019-03-29T14:12:38.038Z,13.97
2019-03-29T14:15:07.201Z,14.67
2019-03-29T14:17:35.016Z,14.60
2019-03-29T14:20:03.138Z,13.43
2019-03-29T14:22:30.906Z,21.27
2019-03-29T14:24:58.664Z,12.97
2019-03-29T14:27:26.476Z,12.10
2019-03-29T14:30:04.407Z,13.50
2019-03-29T14:32:24.002Z,11.80
2019-03-29T14:34:51.768Z,12.37
2019-03-29T14:37:19.537Z,12.20
2019-03-29T14:39:47.293Z,9.20
2019-03-29T14:42:15.178Z,10.93
2019-03-29T14:44:52.157Z,12.07
2019-03-29T14:47:12.768Z,11.43
2019-03-29T14:49:40.541Z,12.70
2019-03-29T14:52:08.269Z,9.60
2019-03-29T14:54:36.302Z,13.73
2019-03-29T14:57:05.619Z,14.23
2019-03-29T14:59:33.701Z,14.43
2019-03-29T15:02:01.565Z,12.00
2019-03-29T15:04:29.342Z,12.27
2019-03-29T15:06:57.394Z,9.73
2019-03-29T15:09:25.146Z,23.47
2019-03-29T15:11:52.913Z,10.80
2019-03-29T15:14:23.086Z,11.93
2019-03-29T15:16:50.488Z,10.87
2019-03-29T15:19:18.236Z,14.03
2019-03-29T15:21:46.000Z,17.07
2019-03-29T15:24:13.824Z,9.10
2019-03-29T15:26:41.625Z,9.67
2019-03-29T15:29:09.436Z,10.57
2019-03-29T15:31:37.258Z,11.40
2019-03-29T15:34:05.056Z,12.00
2019-03-29T15:36:32.860Z,13.77
2019-03-29T15:39:00.634Z,10.50
2019-03-29T15:41:28.383Z,13.37
2019-03-29T15:43:56.150Z,9.93
2019-03-29T15:46:24.032Z,10.63
2019-03-29T15:48:51.799Z,17.20
2019-03-29T15:51:19.616Z,11.90
2019-03-29T15:53:47.372Z,12.53
2019-03-29T15:56:15.112Z,13.47
2019-03-29T15:58:42.926Z,12.33
2019-03-29T16:01:10.789Z,15.30
2019-03-29T16:03:38.741Z,13.93
2019-03-29T16:06:06.496Z,14.10
2019-03-29T16:08:34.474Z,16.50
2019-03-29T16:11:02.213Z,20.63
2019-03-29T16:13:30.024Z,47.53
2019-03-29T16:15:57.801Z,14.97
2019-03-29T16:18:25.692Z,12.53
2019-03-29T16:20:53.668Z,16.97
2019-03-29T16:23:21.432Z,12.50
2019-03-29T16:25:49.213Z,13.97
2019-03-29T16:28:17.089Z,15.00
2019-03-29T16:30:44.860Z,19.57
2019-03-29T16:33:12.643Z,15.63
2019-03-29T16:35:40.613Z,15.83
2019-03-29T16:38:08.641Z,18.17
2019-03-29T16:40:36.405Z,20.07
2019-03-29T16:43:04.155Z,17.27
2019-03-29T16:45:31.921Z,21.67
2019-03-29T16:47:59.670Z,18.77
2019-03-29T16:50:27.480Z,22.17
2019-03-29T16:52:55.356Z,18.90
2019-03-29T16:55:23.177Z,18.37
2019-03-29T16:57:51.005Z,23.50
2019-03-29T17:00:18.878Z,30.87
2019-03-29T17:02:46.643Z,21.83
2019-03-29T17:05:14.508Z,18.50
2019-03-29T17:07:42.275Z,13.77
2019-03-29T17:10:10.184Z,12.43
2019-03-29T17:12:37.939Z,15.90
2019-03-29T17:15:06.188Z,13.00
2019-03-29T17:17:34.365Z,18.33
2019-03-29T17:20:02.252Z,22.80
2019-03-29T17:22:30.176Z,41.57
2019-03-29T17:24:58.293Z,88.73
2019-03-29T17:27:26.077Z,60.53
2019-03-29T17:29:54.003Z,38.83
2019-03-29T17:32:21.898Z,31.77
2019-03-29T17:34:49.661Z,26.30
2019-03-29T17:37:17.491Z,29.80
2019-03-29T17:39:45.425Z,20.43
2019-03-29T17:42:13.284Z,17.47
2019-03-29T17:44:41.572Z,16.57
2019-03-29T17:47:09.505Z,17.50
2019-03-29T17:49:37.296Z,21.50
2019-03-29T17:52:05.081Z,28.30
2019-03-29T17:54:32.836Z,35.67
2019-03-29T17:57:00.568Z,33.53
2019-03-29T17:59:28.322Z,22.63
2019-03-29T18:02:08.795Z,19.90
2019-03-29T18:04:25.836Z,21.47
2019-03-29T18:06:53.713Z,14.87
2019-03-29T18:09:21.465Z,18.70
2019-03-29T18:11:49.216Z,25.07
2019-03-29T18:14:16.941Z,19.93
2019-03-29T18:16:44.745Z,17.43
2019-03-29T18:19:12.668Z,18.20
2019-03-29T18:21:40.409Z,17.00
2019-03-29T18:24:08.169Z,19.80
2019-03-29T18:26:35.905Z,38.93
2019-03-29T18:29:03.640Z,32.60
2019-03-29T18:31:31.453Z,29.23
2019-03-29T18:33:59.622Z,34.93
2019-03-29T18:36:27.566Z,16.63
2019-03-29T18:38:55.320Z,23.00
2019-03-29T18:41:23.048Z,23.43
2019-03-29T18:43:50.785Z,22.80
2019-03-29T18:46:18.682Z,15.07
2019-03-29T18:48:46.537Z,16.10
2019-03-29T18:51:14.410Z,16.20
2019-03-29T18:53:42.585Z,19.20
2019-03-29T18:56:10.453Z,30.43
2019-03-29T18:58:38.224Z,16.63
2019-03-29T19:01:05.968Z,17.43
2019-03-29T19:03:33.756Z,19.70
2019-03-29T19:06:01.523Z,21.93
2019-03-29T19:08:29.320Z,19.87
2019-03-29T19:10:57.069Z,33.97
2019-03-29T19:13:24.848Z,29.87
2019-03-29T19:15:52.648Z,17.00
2019-03-29T19:18:20.405Z,19.47
2019-03-29T19:20:48.272Z,14.20
2019-03-29T19:23:16.281Z,13.20
2019-03-29T19:25:44.032Z,18.93
2019-03-29T19:28:11.776Z,15.30
2019-03-29T19:30:39.641Z,18.10
2019-03-29T19:33:07.650Z,19.43
2019-03-29T19:35:35.437Z,18.73
2019-03-29T19:38:04.090Z,16.50
2019-03-29T19:40:31.908Z,20.30
2019-03-29T19:42:59.684Z,16.03
2019-03-29T19:45:27.448Z,17.20
2019-03-29T19:47:55.177Z,14.83
2019-03-29T19:50:22.966Z,13.53
2019-03-29T19:52:50.720Z,14.80
2019-03-29T19:55:18.636Z,17.20
2019-03-29T19:57:46.695Z,19.13
2019-03-29T20:00:14.828Z,16.63
2019-03-29T20:02:42.900Z,19.90
2019-03-29T20:05:24.506Z,21.17
2019-03-29T20:07:52.952Z,28.93
2019-03-29T20:10:20.731Z,14.87
2019-03-29T20:12:48.672Z,17.27
2019-03-29T20:15:16.627Z,15.60
2019-03-29T20:17:44.505Z,21.30
2019-03-29T20:20:15.876Z,16.47
2019-03-29T20:22:43.616Z,24.20
2019-03-29T20:25:11.385Z,26.97
2019-03-29T20:27:39.164Z,29.50
2019-03-29T20:30:07.320Z,28.63
2019-03-29T20:32:35.084Z,24.43
2019-03-29T20:35:02.880Z,28.57
2019-03-29T20:37:30.707Z,19.97
2019-03-29T20:39:58.657Z,19.80
2019-03-29T20:42:26.427Z,22.70
2019-03-29T20:44:54.164Z,21.57
2019-03-29T20:47:21.902Z,20.67
2019-03-29T20:49:49.666Z,19.53
2019-03-29T20:52:17.401Z,21.27
2019-03-29T20:54:45.137Z,16.50
2019-03-29T20:57:12.877Z,20.17
2019-03-29T20:59:40.644Z,16.93
2019-03-29T21:02:08.382Z,22.37
2019-03-29T21:04:36.133Z,25.13
2019-03-29T21:07:03.856Z,17.13
2019-03-29T21:09:31.616Z,17.17
2019-03-29T21:11:59.380Z,21.10
2019-03-29T21:14:27.232Z,22.00
2019-03-29T21:16:55.048Z,22.80
2019-03-29T21:19:22.896Z,29.87
2019-03-29T21:21:50.666Z,24.83
2019-03-29T21:24:18.428Z,23.27
2019-03-29T21:26:46.184Z,27.60
2019-03-29T21:29:13.916Z,23.70
2019-03-29T21:31:41.677Z,27.70
2019-03-29T21:34:09.428Z,27.53
2019-03-29T21:36:37.243Z,30.83
2019-03-29T21:39:08.157Z,23.77
2019-03-29T21:41:35.929Z,30.50
2019-03-29T21:44:03.704Z,24.07
2019-03-29T21:46:31.444Z,20.40
2019-03-29T21:48:59.190Z,28.07
2019-03-29T21:51:26.920Z,18.53
2019-03-29T21:53:54.678Z,19.57
2019-03-29T21:56:22.457Z,25.17
2019-03-29T21:58:50.263Z,19.30
2019-03-29T22:01:18.128Z,20.77
2019-03-29T22:03:45.876Z,21.27
2019-03-29T22:06:13.612Z,25.47
2019-03-29T22:08:41.380Z,17.53
2019-03-29T22:11:09.137Z,23.73
2019-03-29T22:13:36.797Z,24.40
2019-03-29T22:16:04.557Z,25.23
2019-03-29T22:18:38.118Z,23.10
2019-03-29T22:21:02.091Z,25.20
2019-03-29T22:23:29.860Z,29.27
2019-03-29T22:25:57.620Z,24.80
2019-03-29T22:28:25.408Z,24.10
2019-03-29T22:30:53.169Z,24.77
2019-03-29T22:33:20.920Z,23.57
2019-03-29T22:35:48.788Z,28.00
2019-03-29T22:38:16.746Z,22.87
2019-03-29T22:40:44.536Z,31.03
2019-03-29T22:43:12.413Z,21.77
2019-03-29T22:45:40.196Z,21.70
2019-03-29T22:48:08.060Z,22.77
2019-03-29T22:50:35.808Z,23.80
2019-03-29T22:53:03.663Z,18.20
2019-03-29T22:55:31.504Z,19.67
2019-03-29T22:57:59.549Z,25.30
2019-03-29T23:00:35.798Z,19.90
2019-03-29T23:03:03.956Z,22.30
2019-03-29T23:05:31.825Z,22.90
2019-03-29T23:07:59.584Z,22.07
2019-03-29T23:10:27.312Z,19.80
2019-03-29T23:12:55.190Z,21.90
2019-03-29T23:15:22.932Z,19.13
2019-03-29T23:17:50.788Z,28.40
2019-03-29T23:20:18.548Z,20.07
2019-03-29T23:22:46.320Z,21.10
2019-03-29T23:25:14.077Z,25.13
2019-03-29T23:27:41.824Z,24.03
2019-03-29T23:30:10.032Z,20.10
2019-03-29T23:32:37.769Z,21.47
2019-03-29T23:35:05.857Z,21.27
2019-03-29T23:37:33.609Z,23.93
2019-03-29T23:40:01.444Z,23.30
2019-03-29T23:42:29.208Z,20.67
2019-03-29T23:44:57.036Z,22.47
2019-03-29T23:47:24.789Z,28.53
2019-03-29T23:49:52.644Z,24.20
2019-03-29T23:52:20.421Z,24.40
2019-03-29T23:54:48.160Z,19.77
2019-03-29T23:57:16.022Z,26.63
2019-03-29T23:59:43.873Z,20.20
